DLH9HE LSGG-EDDM
Flight info
| Callsign | DLH9HE |
|---|---|
| Flight time | 0h 49m |
| Altitude | 30000 |
| Route | SOSAL N871 KORED DCT BERSU N871 DITON/N0461F310 DCT NUNRI/N0383F190 T103 BETOS BETOS1A |
| Aircraft | A346/H-SDE2E3FGHIJ3J4J5M1RWXY/LB1D1 |
Departure
| Time | 2026-05-04 15:43 |
|---|---|
| Airport | Geneva International Airport (LSGG) |
Arrival
| Time | 2026-05-04 16:32 |
|---|---|
| Airport | Munich Airport (EDDM) |
| Time | Latitude | Longitude | Altitude | Speed | Heading |
|---|---|---|---|---|---|
| 2026-05-04 15:20 | 46.23438 | 6.10793 | 1388 ft | 0 kts | 135° |
| 2026-05-04 15:34 | 46.23423 | 6.10813 | 1388 ft | 0 kts | 135° |
| 2026-05-04 15:36 | 46.23419 | 6.10820 | 1388 ft | 2 kts | 135° |
| 2026-05-04 15:36 | 46.23402 | 6.10845 | 1384 ft | 2 kts | 120° |
| 2026-05-04 15:36 | 46.23400 | 6.10886 | 1384 ft | 6 kts | 86° |
| 2026-05-04 15:37 | 46.23418 | 6.10937 | 1388 ft | 7 kts | 52° |
| 2026-05-04 15:37 | 46.23461 | 6.11002 | 1388 ft | 10 kts | 45° |
| 2026-05-04 15:37 | 46.23522 | 6.11090 | 1381 ft | 15 kts | 45° |
| 2026-05-04 15:37 | 46.23603 | 6.11140 | 1383 ft | 13 kts | 335° |
| 2026-05-04 15:38 | 46.23676 | 6.11070 | 1382 ft | 12 kts | 349° |
| 2026-05-04 15:38 | 46.23724 | 6.11117 | 1384 ft | 9 kts | 38° |
| 2026-05-04 15:38 | 46.23776 | 6.11184 | 1385 ft | 12 kts | 44° |
| 2026-05-04 15:38 | 46.23842 | 6.11278 | 1381 ft | 15 kts | 45° |
| 2026-05-04 15:39 | 46.23920 | 6.11393 | 1382 ft | 17 kts | 46° |
| 2026-05-04 15:39 | 46.24017 | 6.11538 | 1377 ft | 22 kts | 46° |
| 2026-05-04 15:39 | 46.24344 | 6.12016 | 1372 ft | 54 kts | 45° |
| 2026-05-04 15:40 | 46.24656 | 6.12472 | 1370 ft | 71 kts | 45° |
| 2026-05-04 15:40 | 46.24740 | 6.12592 | 1371 ft | 70 kts | 43° |
| 2026-05-04 15:40 | 46.24864 | 6.12691 | 1367 ft | 14 kts | 21° |
| 2026-05-04 15:40 | 46.24896 | 6.12708 | 1366 ft | 1 kts | 21° |
| 2026-05-04 15:41 | 46.24913 | 6.12718 | 1366 ft | 4 kts | 20° |
| 2026-05-04 15:41 | 46.24917 | 6.12720 | 1367 ft | 0 kts | 19° |
| 2026-05-04 15:41 | 46.24919 | 6.12721 | 1364 ft | 1 kts | 18° |
| 2026-05-04 15:42 | 46.24970 | 6.12724 | 1367 ft | 12 kts | 347° |
| 2026-05-04 15:42 | 46.24961 | 6.12592 | 1367 ft | 25 kts | 228° |
| 2026-05-04 15:42 | 46.24707 | 6.12215 | 1375 ft | 86 kts | 225° |
| 2026-05-04 15:42 | 46.24095 | 6.11320 | 1380 ft | 161 kts | 225° |
| 2026-05-04 15:43 | 46.23147 | 6.09951 | 1467 ft | 216 kts | 225° |
| 2026-05-04 15:43 | 46.22100 | 6.08494 | 2736 ft | 203 kts | 225° |
| 2026-05-04 15:43 | 46.21074 | 6.06950 | 3597 ft | 223 kts | 226° |
| 2026-05-04 15:43 | 46.19985 | 6.05286 | 4238 ft | 235 kts | 225° |
| 2026-05-04 15:44 | 46.18824 | 6.03550 | 4748 ft | 253 kts | 225° |
| 2026-05-04 15:44 | 46.17558 | 6.01686 | 5512 ft | 264 kts | 224° |
| 2026-05-04 15:44 | 46.16267 | 5.99789 | 6551 ft | 265 kts | 223° |
| 2026-05-04 15:44 | 46.15001 | 5.97837 | 7550 ft | 267 kts | 231° |
| 2026-05-04 15:45 | 46.14261 | 5.95384 | 8334 ft | 271 kts | 257° |
| 2026-05-04 15:45 | 46.14278 | 5.92641 | 8815 ft | 278 kts | 278° |
| 2026-05-04 15:45 | 46.15024 | 5.90033 | 9006 ft | 287 kts | 300° |
| 2026-05-04 15:45 | 46.16447 | 5.87967 | 9007 ft | 297 kts | 323° |
| 2026-05-04 15:46 | 46.17714 | 5.87078 | 8991 ft | 302 kts | 340° |
| 2026-05-04 15:46 | 46.19779 | 5.86765 | 8995 ft | 305 kts | 5° |
| 2026-05-04 15:46 | 46.21786 | 5.87701 | 8979 ft | 306 kts | 31° |
| 2026-05-04 15:46 | 46.23353 | 5.89750 | 8984 ft | 304 kts | 57° |
| 2026-05-04 15:47 | 46.24223 | 5.92497 | 9005 ft | 301 kts | 76° |
| 2026-05-04 15:47 | 46.24790 | 5.95408 | 9008 ft | 300 kts | 77° |
| 2026-05-04 15:47 | 46.25341 | 5.98324 | 8999 ft | 300 kts | 77° |
| 2026-05-04 15:47 | 46.25917 | 6.01227 | 8995 ft | 300 kts | 77° |
| 2026-05-04 15:48 | 46.26551 | 6.04103 | 8989 ft | 301 kts | 70° |
| 2026-05-04 15:48 | 46.27648 | 6.06789 | 9190 ft | 317 kts | 52° |
| 2026-05-04 15:48 | 46.30827 | 6.11232 | 10981 ft | 322 kts | 43° |
| 2026-05-04 15:49 | 46.32531 | 6.13469 | 11437 ft | 339 kts | 43° |
| 2026-05-04 15:49 | 46.34316 | 6.15838 | 11834 ft | 357 kts | 44° |
| 2026-05-04 15:49 | 46.36192 | 6.18344 | 12185 ft | 375 kts | 43° |
| 2026-05-04 15:49 | 46.38169 | 6.20937 | 12543 ft | 392 kts | 43° |
| 2026-05-04 15:50 | 46.40243 | 6.23635 | 12939 ft | 407 kts | 42° |
| 2026-05-04 15:50 | 46.42362 | 6.26419 | 13636 ft | 412 kts | 43° |
| 2026-05-04 15:50 | 46.44480 | 6.29246 | 14342 ft | 415 kts | 43° |
| 2026-05-04 15:50 | 46.46611 | 6.32102 | 14952 ft | 419 kts | 43° |
| 2026-05-04 15:51 | 46.48768 | 6.34996 | 15596 ft | 424 kts | 43° |
| 2026-05-04 15:51 | 46.50946 | 6.37919 | 16282 ft | 429 kts | 43° |
| 2026-05-04 15:51 | 46.53164 | 6.40899 | 17027 ft | 434 kts | 43° |
| 2026-05-04 15:51 | 46.55227 | 6.44112 | 17662 ft | 438 kts | 56° |
| 2026-05-04 15:52 | 46.56591 | 6.48074 | 18322 ft | 439 kts | 70° |
| 2026-05-04 15:52 | 46.57710 | 6.52244 | 18958 ft | 441 kts | 71° |
| 2026-05-04 15:52 | 46.58806 | 6.56437 | 19508 ft | 444 kts | 71° |
| 2026-05-04 15:52 | 46.59900 | 6.60631 | 19935 ft | 443 kts | 71° |
| 2026-05-04 15:53 | 46.60997 | 6.64816 | 20055 ft | 442 kts | 71° |
| 2026-05-04 15:53 | 46.62098 | 6.69008 | 20052 ft | 442 kts | 71° |
| 2026-05-04 15:53 | 46.63204 | 6.73216 | 20052 ft | 442 kts | 71° |
| 2026-05-04 15:53 | 46.64303 | 6.77393 | 20051 ft | 442 kts | 71° |
| 2026-05-04 15:54 | 46.65403 | 6.81577 | 20050 ft | 442 kts | 71° |
| 2026-05-04 15:54 | 46.66501 | 6.85757 | 20048 ft | 442 kts | 71° |
| 2026-05-04 15:54 | 46.67604 | 6.89963 | 20047 ft | 442 kts | 71° |
| 2026-05-04 15:54 | 46.68706 | 6.94155 | 20033 ft | 443 kts | 71° |
| 2026-05-04 15:55 | 46.69805 | 6.98359 | 20044 ft | 444 kts | 71° |
| 2026-05-04 15:55 | 46.70897 | 7.02549 | 20044 ft | 444 kts | 71° |
| 2026-05-04 15:55 | 46.72004 | 7.06805 | 20045 ft | 444 kts | 71° |
| 2026-05-04 15:55 | 46.73098 | 7.11014 | 20045 ft | 444 kts | 72° |
| 2026-05-04 15:56 | 46.74191 | 7.15233 | 20050 ft | 444 kts | 72° |
| 2026-05-04 15:56 | 46.75279 | 7.19444 | 20048 ft | 444 kts | 71° |
| 2026-05-04 15:56 | 46.76424 | 7.23643 | 20022 ft | 445 kts | 68° |
| 2026-05-04 15:56 | 46.77836 | 7.27682 | 20019 ft | 447 kts | 61° |
| 2026-05-04 15:57 | 46.79556 | 7.31475 | 20023 ft | 448 kts | 54° |
| 2026-05-04 15:57 | 46.81450 | 7.35012 | 20006 ft | 448 kts | 52° |
| 2026-05-04 15:57 | 46.83418 | 7.38539 | 20012 ft | 447 kts | 51° |
| 2026-05-04 15:57 | 46.85389 | 7.42068 | 20010 ft | 448 kts | 52° |
| 2026-05-04 15:58 | 46.87348 | 7.45627 | 20015 ft | 449 kts | 52° |
| 2026-05-04 15:58 | 46.89300 | 7.49202 | 20016 ft | 449 kts | 52° |
| 2026-05-04 15:58 | 46.91244 | 7.52778 | 20032 ft | 449 kts | 52° |
| 2026-05-04 15:58 | 46.93190 | 7.56362 | 20023 ft | 449 kts | 52° |
| 2026-05-04 15:59 | 46.95132 | 7.59948 | 20021 ft | 449 kts | 52° |
| 2026-05-04 15:59 | 46.97070 | 7.63525 | 20014 ft | 449 kts | 52° |
| 2026-05-04 15:59 | 46.99014 | 7.67116 | 20012 ft | 449 kts | 52° |
| 2026-05-04 15:59 | 47.00960 | 7.70714 | 20011 ft | 449 kts | 52° |
| 2026-05-04 16:00 | 47.02902 | 7.74311 | 19998 ft | 449 kts | 52° |
| 2026-05-04 16:00 | 47.04838 | 7.77902 | 19991 ft | 449 kts | 52° |
| 2026-05-04 16:00 | 47.06788 | 7.81522 | 19989 ft | 449 kts | 52° |
| 2026-05-04 16:00 | 47.08726 | 7.85127 | 19999 ft | 449 kts | 52° |
| 2026-05-04 16:01 | 47.10662 | 7.88734 | 19999 ft | 449 kts | 52° |
| 2026-05-04 16:01 | 47.12585 | 7.92356 | 19991 ft | 449 kts | 53° |
| 2026-05-04 16:01 | 47.14385 | 7.96092 | 19976 ft | 448 kts | 57° |
| 2026-05-04 16:01 | 47.16071 | 7.99948 | 19976 ft | 448 kts | 58° |
| 2026-05-04 16:02 | 47.17729 | 8.03838 | 19976 ft | 448 kts | 59° |
| 2026-05-04 16:02 | 47.19361 | 8.07692 | 19968 ft | 448 kts | 59° |
| 2026-05-04 16:02 | 47.22682 | 8.15526 | 19973 ft | 448 kts | 59° |
| 2026-05-04 16:03 | 47.24334 | 8.19419 | 19971 ft | 448 kts | 59° |
| 2026-05-04 16:03 | 47.25983 | 8.23310 | 19971 ft | 448 kts | 59° |
| 2026-05-04 16:03 | 47.27633 | 8.27207 | 19970 ft | 448 kts | 59° |
| 2026-05-04 16:03 | 47.29206 | 8.31200 | 19955 ft | 447 kts | 63° |
| 2026-05-04 16:04 | 47.30543 | 8.35326 | 19962 ft | 444 kts | 68° |
| 2026-05-04 16:04 | 47.32614 | 8.43914 | 19981 ft | 445 kts | 73° |
| 2026-05-04 16:04 | 47.33567 | 8.48284 | 19958 ft | 445 kts | 73° |
| 2026-05-04 16:05 | 47.34511 | 8.52631 | 19956 ft | 445 kts | 73° |
| 2026-05-04 16:05 | 47.35460 | 8.56989 | 19956 ft | 445 kts | 73° |
| 2026-05-04 16:05 | 47.37372 | 8.65741 | 19961 ft | 445 kts | 73° |
| 2026-05-04 16:06 | 47.38323 | 8.70094 | 19958 ft | 445 kts | 73° |
| 2026-05-04 16:06 | 47.40877 | 8.81811 | 19954 ft | 445 kts | 73° |
| 2026-05-04 16:07 | 47.42130 | 8.87579 | 19957 ft | 445 kts | 73° |
| 2026-05-04 16:07 | 47.44971 | 9.00716 | 19963 ft | 445 kts | 74° |
| 2026-05-04 16:08 | 47.45907 | 9.05054 | 19961 ft | 443 kts | 74° |
| 2026-05-04 16:08 | 47.48708 | 9.18123 | 19958 ft | 442 kts | 74° |
| 2026-05-04 16:09 | 47.50571 | 9.26856 | 19953 ft | 443 kts | 74° |
| 2026-05-04 16:09 | 47.52430 | 9.35608 | 19954 ft | 444 kts | 74° |
| 2026-05-04 16:10 | 47.54277 | 9.44339 | 19957 ft | 444 kts | 74° |
| 2026-05-04 16:11 | 47.57033 | 9.57445 | 19956 ft | 444 kts | 75° |
| 2026-05-04 16:11 | 47.57867 | 9.61844 | 19950 ft | 442 kts | 79° |
| 2026-05-04 16:12 | 47.58330 | 9.75394 | 19956 ft | 438 kts | 96° |
| 2026-05-04 16:12 | 47.57821 | 9.88964 | 19939 ft | 442 kts | 89° |
| 2026-05-04 16:13 | 47.58728 | 9.97794 | 19280 ft | 432 kts | 82° |
| 2026-05-04 16:13 | 47.59818 | 10.06645 | 17839 ft | 429 kts | 82° |
| 2026-05-04 16:14 | 47.60779 | 10.15274 | 16744 ft | 418 kts | 83° |
| 2026-05-04 16:14 | 47.61670 | 10.23656 | 15688 ft | 409 kts | 83° |
| 2026-05-04 16:15 | 47.62953 | 10.36020 | 14203 ft | 397 kts | 83° |
| 2026-05-04 16:16 | 47.63776 | 10.44043 | 13244 ft | 387 kts | 83° |
| 2026-05-04 16:16 | 47.64968 | 10.55739 | 11972 ft | 380 kts | 84° |
| 2026-05-04 16:17 | 47.65752 | 10.63546 | 11963 ft | 382 kts | 84° |
| 2026-05-04 16:18 | 47.69470 | 10.73849 | 10780 ft | 382 kts | 55° |
| 2026-05-04 16:18 | 47.71048 | 10.77018 | 10339 ft | 377 kts | 56° |
| 2026-05-04 16:19 | 47.75320 | 10.86175 | 9944 ft | 337 kts | 58° |
| 2026-05-04 16:19 | 47.77809 | 10.91708 | 9936 ft | 310 kts | 58° |
| 2026-05-04 16:20 | 47.81387 | 10.99737 | 9959 ft | 309 kts | 58° |
| 2026-05-04 16:20 | 47.83761 | 11.05082 | 9953 ft | 309 kts | 58° |
| 2026-05-04 16:21 | 47.88352 | 11.11607 | 9959 ft | 309 kts | 26° |
| 2026-05-04 16:22 | 47.92252 | 11.14362 | 9954 ft | 312 kts | 24° |
| 2026-05-04 16:22 | 47.98172 | 11.18437 | 9943 ft | 311 kts | 24° |
| 2026-05-04 16:23 | 48.04010 | 11.22461 | 8902 ft | 305 kts | 24° |
| 2026-05-04 16:24 | 48.11568 | 11.27660 | 7579 ft | 292 kts | 26° |
| 2026-05-04 16:25 | 48.14949 | 11.30917 | 6960 ft | 286 kts | 35° |
| 2026-05-04 16:26 | 48.21325 | 11.37465 | 5990 ft | 265 kts | 34° |
| 2026-05-04 16:26 | 48.25783 | 11.41933 | 5092 ft | 259 kts | 33° |
| 2026-05-04 16:27 | 48.28692 | 11.44844 | 4798 ft | 243 kts | 33° |
| 2026-05-04 16:28 | 48.32274 | 11.49501 | 4277 ft | 221 kts | 78° |
| 2026-05-04 16:28 | 48.32649 | 11.56218 | 3909 ft | 215 kts | 84° |
| 2026-05-04 16:29 | 48.33304 | 11.65085 | 2811 ft | 209 kts | 83° |
| 2026-05-04 16:30 | 48.33767 | 11.71210 | 2040 ft | 181 kts | 82° |
| 2026-05-04 16:31 | 48.34035 | 11.74724 | 1576 ft | 156 kts | 81° |
| 2026-05-04 16:31 | 48.34262 | 11.77543 | 1483 ft | 56 kts | 84° |
| 2026-05-04 16:32 | 48.34383 | 11.79000 | 1485 ft | 49 kts | 70° |
| 2026-05-04 16:33 | 48.34589 | 11.79470 | 1479 ft | 0 kts | 53° |
| 2026-05-04 16:33 | 48.34592 | 11.79475 | 1480 ft | 2 kts | 53° |
| 2026-05-04 16:34 | 48.34632 | 11.79540 | 1483 ft | 7 kts | 28° |
| 2026-05-04 16:34 | 48.34687 | 11.79556 | 1479 ft | 9 kts | 359° |
| 2026-05-04 16:35 | 48.34808 | 11.79560 | 1483 ft | 0 kts | 358° |
| 2026-05-04 16:35 | 48.34811 | 11.79559 | 1479 ft | 2 kts | 358° |
| 2026-05-04 16:36 | 48.34854 | 11.79558 | 1485 ft | 11 kts | 358° |
| 2026-05-04 16:36 | 48.35152 | 11.79506 | 1487 ft | 31 kts | 352° |
| 2026-05-04 16:37 | 48.35548 | 11.79436 | 1490 ft | 15 kts | 353° |
| 2026-05-04 16:37 | 48.35577 | 11.79426 | 1483 ft | 3 kts | 337° |
| 2026-05-04 16:37 | 48.35599 | 11.79343 | 1494 ft | 1 kts | 264° |
| 2026-05-04 16:38 | 48.35596 | 11.79299 | 1494 ft | 5 kts | 264° |
| 2026-05-04 16:39 | 48.35595 | 11.79288 | 1494 ft | 0 kts | 264° |